createdAt,value
2016-12-15T00:00:20.019Z,927.2
2016-12-15T00:00:48.244Z,927.28
2016-12-15T00:01:16.208Z,927.25
2016-12-15T00:01:44.441Z,927.24
2016-12-15T00:02:12.705Z,927.26
2016-12-15T00:02:40.937Z,927.2
2016-12-15T00:03:09.261Z,927.26
2016-12-15T00:03:37.503Z,927.33
2016-12-15T00:04:48.845Z,927.26
2016-12-15T00:05:16.916Z,927.24
2016-12-15T00:05:45.257Z,927.29
2016-12-15T00:06:13.590Z,927.33
2016-12-15T00:06:41.724Z,927.32
2016-12-15T00:07:09.777Z,927.33
2016-12-15T00:07:38.116Z,927.33
2016-12-15T00:08:06.381Z,927.28
2016-12-15T00:08:34.602Z,927.31
2016-12-15T00:09:02.654Z,927.35
2016-12-15T00:09:30.895Z,927.35
2016-12-15T00:10:42.149Z,927.31
2016-12-15T00:11:10.392Z,927.35
2016-12-15T00:11:38.738Z,927.34
2016-12-15T00:12:06.975Z,927.39
2016-12-15T00:12:35.296Z,927.34
2016-12-15T00:13:03.452Z,927.4
2016-12-15T00:13:31.589Z,927.27
2016-12-15T00:13:59.857Z,927.31
2016-12-15T00:14:28.203Z,927.33
2016-12-15T00:14:56.431Z,927.32
2016-12-15T00:15:24.685Z,927.33
2016-12-15T00:16:36.043Z,927.34
2016-12-15T00:17:04.375Z,927.34
2016-12-15T00:17:32.624Z,927.37
2016-12-15T00:18:00.967Z,927.35
2016-12-15T00:18:29.095Z,927.38
2016-12-15T00:18:57.339Z,927.38
2016-12-15T00:19:25.673Z,927.39
2016-12-15T00:19:53.849Z,927.41
2016-12-15T00:20:22.088Z,927.4
2016-12-15T00:20:50.331Z,927.39
2016-12-15T00:21:18.459Z,927.42
2016-12-15T00:22:29.722Z,927.5
2016-12-15T00:22:57.969Z,927.45
2016-12-15T00:23:26.308Z,927.42
2016-12-15T00:23:54.450Z,927.49
2016-12-15T00:24:22.771Z,927.48
2016-12-15T00:24:50.917Z,927.5
2016-12-15T00:25:19.157Z,927.46
2016-12-15T00:25:47.329Z,927.5
2016-12-15T00:26:15.648Z,927.48
2016-12-15T00:26:43.879Z,927.5
2016-12-15T00:27:12.128Z,927.48
2016-12-15T00:28:23.127Z,927.47
2016-12-15T00:28:51.381Z,927.49
2016-12-15T00:29:19.630Z,927.51
2016-12-15T00:29:47.871Z,927.54
2016-12-15T00:30:16.107Z,927.53
2016-12-15T00:30:44.165Z,927.54
2016-12-15T00:31:12.844Z,927.58
2016-12-15T00:31:41.017Z,927.53
2016-12-15T00:32:09.250Z,927.55
2016-12-15T00:32:37.470Z,927.54
2016-12-15T00:33:05.711Z,927.6
2016-12-15T00:34:17.054Z,927.58
2016-12-15T00:34:45.293Z,927.65
2016-12-15T00:35:13.451Z,927.61
2016-12-15T00:35:41.595Z,927.7
2016-12-15T00:36:09.827Z,927.65
2016-12-15T00:36:37.975Z,927.64
2016-12-15T00:37:06.212Z,927.62
2016-12-15T00:37:34.570Z,927.71
2016-12-15T00:38:02.619Z,927.68
2016-12-15T00:38:30.938Z,927.69
2016-12-15T00:38:59.183Z,927.72
2016-12-15T00:40:10.335Z,927.71
2016-12-15T00:40:38.671Z,927.68
2016-12-15T00:41:06.917Z,927.74
2016-12-15T00:41:35.148Z,927.7
2016-12-15T00:42:03.375Z,927.67
2016-12-15T00:42:31.337Z,927.68
2016-12-15T00:42:59.659Z,927.64
2016-12-15T00:43:27.921Z,927.67
2016-12-15T00:43:56.052Z,927.69
2016-12-15T00:44:23.999Z,927.71
2016-12-15T00:44:52.239Z,927.66
2016-12-15T00:46:03.482Z,927.69
2016-12-15T00:46:31.629Z,927.75
2016-12-15T00:46:59.790Z,927.7
2016-12-15T00:47:28.028Z,927.71
2016-12-15T00:47:56.354Z,927.68
2016-12-15T00:48:24.220Z,927.78
2016-12-15T00:48:52.359Z,927.74
2016-12-15T00:49:20.719Z,927.71
2016-12-15T00:49:48.944Z,927.69
2016-12-15T00:50:17.262Z,927.72
2016-12-15T00:50:45.500Z,927.7
2016-12-15T00:51:56.651Z,927.66
2016-12-15T00:52:24.988Z,927.73
2016-12-15T00:52:53.233Z,927.7
2016-12-15T00:53:21.377Z,927.7
2016-12-15T00:53:49.512Z,927.77
2016-12-15T00:54:17.567Z,927.72
2016-12-15T00:54:45.889Z,927.69
2016-12-15T00:55:14.154Z,927.7
2016-12-15T00:55:42.471Z,927.66
2016-12-15T00:56:10.695Z,927.72
2016-12-15T00:56:38.758Z,927.72
2016-12-15T00:57:50.101Z,927.62
2016-12-15T00:58:18.250Z,927.64
2016-12-15T00:58:46.404Z,927.59
2016-12-15T00:59:14.640Z,927.56
2016-12-15T00:59:42.676Z,927.58
2016-12-15T01:00:10.916Z,927.6
2016-12-15T01:00:39.049Z,927.54
2016-12-15T01:01:07.314Z,927.6
2016-12-15T01:01:35.627Z,927.57
2016-12-15T01:02:03.946Z,927.63
2016-12-15T01:02:32.279Z,927.58
2016-12-15T01:03:43.523Z,927.58
2016-12-15T01:04:11.672Z,927.62
2016-12-15T01:04:40.012Z,927.61
2016-12-15T01:05:07.969Z,927.63
2016-12-15T01:05:36.003Z,927.6
2016-12-15T01:06:03.964Z,927.62
2016-12-15T01:06:32.288Z,927.63
2016-12-15T01:07:00.650Z,927.6
2016-12-15T01:07:28.878Z,927.64
2016-12-15T01:07:57.102Z,927.65
2016-12-15T01:08:25.431Z,927.61
2016-12-15T01:09:36.678Z,927.6
2016-12-15T01:10:04.828Z,927.61
2016-12-15T01:10:32.987Z,927.61
2016-12-15T01:11:01.239Z,927.6
2016-12-15T01:11:29.375Z,927.63
2016-12-15T01:11:57.426Z,927.65
2016-12-15T01:12:25.656Z,927.6
2016-12-15T01:12:53.918Z,927.56
2016-12-15T01:13:22.238Z,927.62
2016-12-15T01:13:50.552Z,927.58
2016-12-15T01:14:18.791Z,927.54
2016-12-15T01:15:30.030Z,927.58
2016-12-15T01:15:58.368Z,927.61
2016-12-15T01:16:26.523Z,927.68
2016-12-15T01:16:54.665Z,927.65
2016-12-15T01:17:22.801Z,927.63
2016-12-15T01:17:50.768Z,927.65
2016-12-15T01:18:19.097Z,927.61
2016-12-15T01:18:47.455Z,927.68
2016-12-15T01:19:16.213Z,927.68
2016-12-15T01:19:44.446Z,927.64
2016-12-15T01:20:12.776Z,927.61
2016-12-15T01:21:23.934Z,927.65
2016-12-15T01:21:52.179Z,927.65
2016-12-15T01:22:20.340Z,927.7
2016-12-15T01:22:48.486Z,927.63
2016-12-15T01:23:16.715Z,927.65
2016-12-15T01:23:44.956Z,927.65
2016-12-15T01:24:13.287Z,927.66
2016-12-15T01:24:41.456Z,927.67
2016-12-15T01:25:09.591Z,927.7
2016-12-15T01:25:37.811Z,927.66
2016-12-15T01:26:05.952Z,927.63
2016-12-15T01:27:17.293Z,927.65
2016-12-15T01:27:45.624Z,927.68
2016-12-15T01:28:13.969Z,927.72
2016-12-15T01:28:42.115Z,927.71
2016-12-15T01:29:10.428Z,927.69
2016-12-15T01:29:38.481Z,927.69
2016-12-15T01:30:06.716Z,927.7
2016-12-15T01:30:35.070Z,927.7
2016-12-15T01:31:03.385Z,927.76
2016-12-15T01:31:31.701Z,927.7
2016-12-15T01:31:59.941Z,927.72
2016-12-15T01:33:11.188Z,927.7
2016-12-15T01:33:39.428Z,927.75
2016-12-15T01:34:07.674Z,927.69
2016-12-15T01:34:35.908Z,927.76
2016-12-15T01:35:04.127Z,927.67
2016-12-15T01:35:32.363Z,927.7
2016-12-15T01:36:00.691Z,927.74
2016-12-15T01:36:28.959Z,927.69
2016-12-15T01:36:57.274Z,927.74
2016-12-15T01:37:25.402Z,927.75
2016-12-15T01:37:53.636Z,927.71
2016-12-15T01:39:04.883Z,927.74
2016-12-15T01:39:33.123Z,927.7
2016-12-15T01:40:01.280Z,927.76
2016-12-15T01:40:29.424Z,927.74
2016-12-15T01:40:57.742Z,927.73
2016-12-15T01:41:25.705Z,927.72
2016-12-15T01:41:53.844Z,927.71
2016-12-15T01:42:22.102Z,927.76
2016-12-15T01:42:50.328Z,927.72
2016-12-15T01:43:18.460Z,927.74
2016-12-15T01:43:46.507Z,927.75
2016-12-15T01:44:57.845Z,927.75
2016-12-15T01:45:26.182Z,927.72
2016-12-15T01:45:54.423Z,927.7
2016-12-15T01:46:22.688Z,927.72
2016-12-15T01:46:51.008Z,927.68
2016-12-15T01:47:19.154Z,927.74
2016-12-15T01:47:47.294Z,927.7
2016-12-15T01:48:15.652Z,927.74
2016-12-15T01:48:43.883Z,927.73
2016-12-15T01:49:12.102Z,927.77
2016-12-15T01:49:40.432Z,927.74
2016-12-15T01:50:51.775Z,927.77
2016-12-15T01:51:19.739Z,927.78
2016-12-15T01:51:48.080Z,927.83
2016-12-15T01:52:16.318Z,927.78
2016-12-15T01:52:44.636Z,927.79
2016-12-15T01:53:12.874Z,927.81
2016-12-15T01:53:41.013Z,927.85
2016-12-15T01:54:09.087Z,927.76
2016-12-15T01:54:37.404Z,927.78
2016-12-15T01:55:05.628Z,927.8
2016-12-15T01:55:33.895Z,927.75
2016-12-15T01:56:45.047Z,927.8
2016-12-15T01:57:13.383Z,927.79
2016-12-15T01:57:41.635Z,927.77
2016-12-15T01:58:09.962Z,927.76
2016-12-15T01:58:38.281Z,927.74
2016-12-15T01:59:06.331Z,927.73
2016-12-15T01:59:34.655Z,927.7
2016-12-15T02:00:02.826Z,927.72
2016-12-15T02:00:30.954Z,927.72
2016-12-15T02:00:59.086Z,927.69
2016-12-15T02:01:27.412Z,927.69
2016-12-15T02:02:38.656Z,927.66
2016-12-15T02:03:06.806Z,927.75
2016-12-15T02:03:35.053Z,927.75
2016-12-15T02:04:03.198Z,927.7
2016-12-15T02:04:31.422Z,927.68
2016-12-15T02:04:59.472Z,927.73
2016-12-15T02:05:27.703Z,927.72
2016-12-15T02:05:55.874Z,927.7
2016-12-15T02:06:24.100Z,927.73
2016-12-15T02:06:52.319Z,927.69
2016-12-15T02:07:20.553Z,927.73
2016-12-15T02:08:31.891Z,927.7
2016-12-15T02:09:00.130Z,927.67
2016-12-15T02:09:28.375Z,927.68
2016-12-15T02:09:56.520Z,927.68
2016-12-15T02:10:24.746Z,927.69
2016-12-15T02:10:52.988Z,927.64
2016-12-15T02:11:21.221Z,927.67
2016-12-15T02:11:49.486Z,927.61
2016-12-15T02:12:17.714Z,927.64
2016-12-15T02:12:45.933Z,927.7
2016-12-15T02:13:14.172Z,927.68
2016-12-15T02:14:25.508Z,927.75
2016-12-15T02:14:53.748Z,927.66
2016-12-15T02:15:22.081Z,927.68
2016-12-15T02:15:50.310Z,927.67
2016-12-15T02:16:18.625Z,927.69
2016-12-15T02:16:46.770Z,927.73
2016-12-15T02:17:15.096Z,927.74
2016-12-15T02:17:43.359Z,927.72
2016-12-15T02:18:11.678Z,927.73
2016-12-15T02:18:39.806Z,927.75
2016-12-15T02:19:08.044Z,927.78
2016-12-15T02:20:19.198Z,927.74
2016-12-15T02:20:47.528Z,927.72
2016-12-15T02:21:15.684Z,927.74
2016-12-15T02:21:44.020Z,927.67
2016-12-15T02:22:12.335Z,927.68
2016-12-15T02:22:40.386Z,927.64
2016-12-15T02:23:08.619Z,927.66
2016-12-15T02:23:36.884Z,927.62
2016-12-15T02:24:05.217Z,927.59
2016-12-15T02:24:33.530Z,927.64
2016-12-15T02:25:01.855Z,927.52
2016-12-15T02:26:13.100Z,927.52
2016-12-15T02:26:41.338Z,927.57
2016-12-15T02:27:09.584Z,927.64
2016-12-15T02:27:37.813Z,927.55
2016-12-15T02:28:06.133Z,927.57
2016-12-15T02:28:34.282Z,927.56
2016-12-15T02:29:02.526Z,927.55
2016-12-15T02:29:30.699Z,927.59
2016-12-15T02:29:59.017Z,927.61
2016-12-15T02:30:27.241Z,927.64
2016-12-15T02:30:55.481Z,927.56
2016-12-15T02:32:06.628Z,927.55
2016-12-15T02:32:34.783Z,927.58
2016-12-15T02:33:02.940Z,927.61
2016-12-15T02:33:31.084Z,927.67
2016-12-15T02:33:59.397Z,927.66
2016-12-15T02:34:27.635Z,927.64
2016-12-15T02:34:55.962Z,927.67
2016-12-15T02:35:24.227Z,927.53
2016-12-15T02:35:52.453Z,927.76
2016-12-15T02:36:20.763Z,927.59
2016-12-15T02:36:48.903Z,927.58
2016-12-15T02:38:00.048Z,927.61
2016-12-15T02:38:28.197Z,927.6
2016-12-15T02:38:56.539Z,927.62
2016-12-15T02:39:24.772Z,927.63
2016-12-15T02:39:53.087Z,927.61
2016-12-15T02:40:21.231Z,927.65
2016-12-15T02:40:49.557Z,927.68
2016-12-15T02:41:17.829Z,927.71
2016-12-15T02:41:46.142Z,927.69
2016-12-15T02:42:14.366Z,927.68
2016-12-15T02:42:42.513Z,927.7
2016-12-15T02:43:53.847Z,927.67
2016-12-15T02:44:22.124Z,927.69
2016-12-15T02:44:50.367Z,927.77
2016-12-15T02:45:18.601Z,927.94
2016-12-15T02:45:46.919Z,927.69
2016-12-15T02:46:14.875Z,927.63
2016-12-15T02:46:43.106Z,927.66
2016-12-15T02:47:11.369Z,927.71
2016-12-15T02:47:39.688Z,927.67
2016-12-15T02:48:07.910Z,927.61
2016-12-15T02:48:35.959Z,927.63
2016-12-15T02:49:47.299Z,927.67
2016-12-15T02:50:15.542Z,927.69
2016-12-15T02:50:43.612Z,927.75
2016-12-15T02:51:11.845Z,927.7
2016-12-15T02:51:39.991Z,927.66
2016-12-15T02:52:08.227Z,927.66
2016-12-15T02:52:36.553Z,927.62
2016-12-15T02:53:04.816Z,927.64
2016-12-15T02:53:33.129Z,927.69
2016-12-15T02:54:01.350Z,927.64
2016-12-15T02:54:29.589Z,927.65
2016-12-15T02:55:40.831Z,927.64
2016-12-15T02:56:09.072Z,927.61
2016-12-15T02:56:37.318Z,927.6
2016-12-15T02:57:05.458Z,927.55
2016-12-15T02:57:33.774Z,927.56
2016-12-15T02:58:01.921Z,927.57
2016-12-15T02:58:30.058Z,927.58
2016-12-15T02:58:58.229Z,927.68
2016-12-15T02:59:26.365Z,927.55
2016-12-15T02:59:54.685Z,927.56
2016-12-15T03:00:22.915Z,927.58
2016-12-15T03:01:34.164Z,927.61
2016-12-15T03:02:02.496Z,927.75
2016-12-15T03:02:30.744Z,927.55
2016-12-15T03:02:59.073Z,927.58
2016-12-15T03:03:27.295Z,927.54
2016-12-15T03:03:55.444Z,927.59
2016-12-15T03:04:23.674Z,927.59
2016-12-15T03:04:51.850Z,927.6
2016-12-15T03:05:20.166Z,927.57
2016-12-15T03:05:48.384Z,927.55
2016-12-15T03:06:16.619Z,927.57
2016-12-15T03:07:27.770Z,927.54
2016-12-15T03:07:56.101Z,927.52
2016-12-15T03:08:24.254Z,927.6
2016-12-15T03:08:52.580Z,927.57
2016-12-15T03:09:20.806Z,927.54
2016-12-15T03:09:48.950Z,927.62
2016-12-15T03:10:17.181Z,927.54
2016-12-15T03:10:45.539Z,927.56
2016-12-15T03:11:13.672Z,927.61
2016-12-15T03:11:41.888Z,927.53
2016-12-15T03:12:09.939Z,927.69
2016-12-15T03:13:21.185Z,927.62
2016-12-15T03:13:49.428Z,927.56
2016-12-15T03:14:17.766Z,927.53
2016-12-15T03:14:46.097Z,927.53
2016-12-15T03:15:14.413Z,927.5
2016-12-15T03:15:42.653Z,927.48
2016-12-15T03:16:10.879Z,927.48
2016-12-15T03:16:39.142Z,927.49
2016-12-15T03:17:07.275Z,927.52
2016-12-15T03:17:35.500Z,927.48
2016-12-15T03:18:03.653Z,927.47
2016-12-15T03:19:14.898Z,927.49
2016-12-15T03:19:43.044Z,927.47
2016-12-15T03:20:11.201Z,927.53
2016-12-15T03:20:39.352Z,927.52
2016-12-15T03:21:07.675Z,927.44
2016-12-15T03:21:35.821Z,927.42
2016-12-15T03:22:03.958Z,927.46
2016-12-15T03:22:32.220Z,927.43
2016-12-15T03:23:00.358Z,927.46
2016-12-15T03:23:28.677Z,927.47
2016-12-15T03:23:56.818Z,927.49
2016-12-15T03:25:08.155Z,927.43
2016-12-15T03:25:36.491Z,927.44
2016-12-15T03:26:04.747Z,927.45
2016-12-15T03:26:33.075Z,927.41
2016-12-15T03:27:01.209Z,927.39
2016-12-15T03:27:29.452Z,927.41
2016-12-15T03:27:57.688Z,927.44
2016-12-15T03:28:25.856Z,927.47
2016-12-15T03:28:54.076Z,927.41
2016-12-15T03:29:22.206Z,927.45
2016-12-15T03:29:50.256Z,927.43
2016-12-15T03:31:01.503Z,927.42
2016-12-15T03:31:29.833Z,927.47
2016-12-15T03:31:58.175Z,927.47
2016-12-15T03:32:26.412Z,927.42
2016-12-15T03:32:54.640Z,927.41
2016-12-15T03:33:22.784Z,927.42
2016-12-15T03:33:50.923Z,927.37
2016-12-15T03:34:18.906Z,927.41
2016-12-15T03:34:47.131Z,927.43
2016-12-15T03:35:15.451Z,927.47
2016-12-15T03:35:43.688Z,927.45
2016-12-15T03:36:55.029Z,927.44
2016-12-15T03:37:23.359Z,927.45
2016-12-15T03:37:51.516Z,927.52
2016-12-15T03:38:19.749Z,927.47
2016-12-15T03:38:47.893Z,927.45
2016-12-15T03:39:16.041Z,927.43
2016-12-15T03:39:44.367Z,927.43
2016-12-15T03:40:12.539Z,927.47
2016-12-15T03:40:40.673Z,927.44
2016-12-15T03:41:08.894Z,927.47
2016-12-15T03:41:37.129Z,927.44
2016-12-15T03:42:48.378Z,927.41
2016-12-15T03:43:16.528Z,927.41
2016-12-15T03:43:44.772Z,927.41
2016-12-15T03:44:13.100Z,927.36
2016-12-15T03:44:41.326Z,927.39
2016-12-15T03:45:09.380Z,927.34
2016-12-15T03:45:37.519Z,927.58
2016-12-15T03:46:05.690Z,927.37
2016-12-15T03:46:33.819Z,927.34
2016-12-15T03:47:02.045Z,927.37
2016-12-15T03:47:30.091Z,927.27
2016-12-15T03:48:41.432Z,927.39
2016-12-15T03:49:09.670Z,927.32
2016-12-15T03:49:37.826Z,927.28
2016-12-15T03:50:06.065Z,927.28
2016-12-15T03:50:34.299Z,927.2
2016-12-15T03:51:02.353Z,927.21
2016-12-15T03:51:30.678Z,927.19
2016-12-15T03:51:58.943Z,927.23
2016-12-15T03:52:27.076Z,927.2
2016-12-15T03:52:55.298Z,927.23
2016-12-15T03:53:23.349Z,927.22
2016-12-15T03:54:34.590Z,927.19
2016-12-15T03:55:02.833Z,927.23
2016-12-15T03:55:31.081Z,927.19
2016-12-15T03:55:59.315Z,927.19
2016-12-15T03:56:27.446Z,927.24
2016-12-15T03:56:55.589Z,927.23
2016-12-15T03:57:23.910Z,927.23
2016-12-15T03:57:52.172Z,927.17
2016-12-15T03:58:20.303Z,927.27
2016-12-15T03:58:48.527Z,927.23
2016-12-15T03:59:16.857Z,927.25
2016-12-15T04:00:28.200Z,927.23
2016-12-15T04:00:56.534Z,927.2
2016-12-15T04:01:24.779Z,927.24
2016-12-15T04:01:52.927Z,927.22
2016-12-15T04:02:21.238Z,927.24
2016-12-15T04:02:49.385Z,927.23
2016-12-15T04:03:17.709Z,927.22
2016-12-15T04:03:45.972Z,927.23
2016-12-15T04:04:14.286Z,927.18
2016-12-15T04:04:42.511Z,927.17
2016-12-15T04:05:10.566Z,927.18
2016-12-15T04:06:21.811Z,927.21
2016-12-15T04:06:49.955Z,927.2
2016-12-15T04:07:18.203Z,927.2
2016-12-15T04:07:46.355Z,927.22
2016-12-15T04:08:14.671Z,927.18
2016-12-15T04:08:42.727Z,927.22
2016-12-15T04:09:11.051Z,927.24
2016-12-15T04:09:39.316Z,927.19
2016-12-15T04:10:07.633Z,927.11
2016-12-15T04:10:35.853Z,927.13
2016-12-15T04:11:04.180Z,927.14
2016-12-15T04:12:15.342Z,927.21
2016-12-15T04:12:43.672Z,927.16
2016-12-15T04:13:11.916Z,927.09
2016-12-15T04:13:40.149Z,927.07
2016-12-15T04:14:08.279Z,927.08
2016-12-15T04:14:36.430Z,927.08
2016-12-15T04:15:04.659Z,927.06
2016-12-15T04:15:33.019Z,927.16
2016-12-15T04:16:01.337Z,927.12
2016-12-15T04:16:29.373Z,927.1
2016-12-15T04:16:57.699Z,927.08
2016-12-15T04:18:08.854Z,927.13
2016-12-15T04:18:37.003Z,927.1
2016-12-15T04:19:05.343Z,927.06
2016-12-15T04:19:33.672Z,927.02
2016-12-15T04:20:01.985Z,927.01
2016-12-15T04:20:30.131Z,927.04
2016-12-15T04:20:58.268Z,927.03
2016-12-15T04:21:26.439Z,927.01
2016-12-15T04:21:54.759Z,927.02
2016-12-15T04:22:22.893Z,926.97
2016-12-15T04:22:51.222Z,926.98
2016-12-15T04:24:02.464Z,927
2016-12-15T04:24:30.706Z,927.13
2016-12-15T04:24:58.762Z,927.01
2016-12-15T04:25:27.092Z,927.01
2016-12-15T04:25:55.130Z,927
2016-12-15T04:26:22.994Z,927
2016-12-15T04:26:51.228Z,927.04
2016-12-15T04:27:19.395Z,927.03
2016-12-15T04:27:47.717Z,927.01
2016-12-15T04:28:15.845Z,927.02
2016-12-15T04:28:44.170Z,927.07
2016-12-15T04:29:55.314Z,927.03
2016-12-15T04:30:23.651Z,927.07
2016-12-15T04:30:51.805Z,927
2016-12-15T04:31:20.132Z,926.97
2016-12-15T04:31:48.356Z,926.99
2016-12-15T04:32:16.320Z,926.98
2016-12-15T04:32:44.461Z,927.02
2016-12-15T04:33:12.810Z,926.99
2016-12-15T04:33:40.947Z,926.99
2016-12-15T04:34:09.171Z,927
2016-12-15T04:34:37.411Z,926.99
2016-12-15T04:35:48.748Z,927.03
2016-12-15T04:36:16.801Z,927.03
2016-12-15T04:36:44.983Z,927.06
2016-12-15T04:37:13.218Z,927.02
2016-12-15T04:37:41.348Z,927.02
2016-12-15T04:38:09.495Z,927.04
2016-12-15T04:38:37.815Z,927.03
2016-12-15T04:39:06.173Z,926.97
2016-12-15T04:39:34.399Z,927.16
2016-12-15T04:40:02.621Z,927.09
2016-12-15T04:40:30.951Z,926.96
2016-12-15T04:41:42.198Z,927.04
2016-12-15T04:42:10.532Z,927
2016-12-15T04:42:38.690Z,926.95
2016-12-15T04:43:06.835Z,926.96
2016-12-15T04:43:35.058Z,926.93
2016-12-15T04:44:03.116Z,926.98
2016-12-15T04:44:31.248Z,926.93
2016-12-15T04:44:59.511Z,926.98
2016-12-15T04:45:27.826Z,927.02
2016-12-15T04:45:56.048Z,926.96
2016-12-15T04:46:24.288Z,927.01
2016-12-15T04:47:35.535Z,926.98
2016-12-15T04:48:03.778Z,926.95
2016-12-15T04:48:32.117Z,927.01
2016-12-15T04:49:00.445Z,926.97
2016-12-15T04:49:28.574Z,926.96
2016-12-15T04:49:56.727Z,926.96
2016-12-15T04:50:24.947Z,927.01
2016-12-15T04:50:53.306Z,927.17
2016-12-15T04:51:21.530Z,926.99
2016-12-15T04:51:49.845Z,927.01
2016-12-15T04:52:18.177Z,927.04
2016-12-15T04:53:29.426Z,927.01
2016-12-15T04:53:57.664Z,927.07
2016-12-15T04:54:25.821Z,927.06
2016-12-15T04:54:53.962Z,926.95
2016-12-15T04:55:22.091Z,926.97
2016-12-15T04:55:50.054Z,926.98
2016-12-15T04:56:18.376Z,927.05
2016-12-15T04:56:46.547Z,927.14
2016-12-15T04:57:14.862Z,927.08
2016-12-15T04:57:43.178Z,926.97
2016-12-15T04:58:11.505Z,926.98
2016-12-15T04:59:22.654Z,927.1
2016-12-15T04:59:50.798Z,927.07
2016-12-15T05:00:19.048Z,927.03
2016-12-15T05:00:47.286Z,927.18
2016-12-15T05:01:15.601Z,927.04
2016-12-15T05:01:43.652Z,927.23
2016-12-15T05:02:11.794Z,927.03
2016-12-15T05:02:40.145Z,926.99
2016-12-15T05:03:08.463Z,927.25
2016-12-15T05:03:36.773Z,927.07
2016-12-15T05:04:04.913Z,927.06
2016-12-15T05:05:16.066Z,927.1
2016-12-15T05:05:44.307Z,927.04
2016-12-15T05:06:12.552Z,927.01
2016-12-15T05:06:40.788Z,927.01
2016-12-15T05:07:09.103Z,927.04
2016-12-15T05:07:37.159Z,927.11
2016-12-15T05:08:05.483Z,927.07
2016-12-15T05:08:33.748Z,927.16
2016-12-15T05:09:01.976Z,927.08
2016-12-15T05:09:30.099Z,927.05
2016-12-15T05:09:58.237Z,927.08
2016-12-15T05:11:09.575Z,927.04
2016-12-15T05:11:37.909Z,927.07
2016-12-15T05:12:06.160Z,927.08
2016-12-15T05:12:34.397Z,927.03
2016-12-15T05:13:02.617Z,927.01
2016-12-15T05:13:30.762Z,926.99
2016-12-15T05:13:58.994Z,926.99
2016-12-15T05:14:27.069Z,927
2016-12-15T05:14:55.384Z,927.05
2016-12-15T05:15:23.515Z,927.03
2016-12-15T05:15:51.750Z,927.03
2016-12-15T05:17:03.000Z,927.06
2016-12-15T05:17:31.334Z,926.97
2016-12-15T05:17:59.582Z,927.03
2016-12-15T05:18:27.817Z,927.01
2016-12-15T05:18:56.131Z,926.93
2016-12-15T05:19:24.279Z,926.97
2016-12-15T05:19:52.414Z,926.97
2016-12-15T05:20:20.679Z,926.95
2016-12-15T05:20:48.994Z,926.95
2016-12-15T05:21:17.216Z,926.93
2016-12-15T05:21:45.454Z,926.88
2016-12-15T05:22:56.701Z,926.93
2016-12-15T05:23:24.939Z,926.95
2016-12-15T05:23:53.118Z,926.96
2016-12-15T05:24:21.354Z,926.96
2016-12-15T05:24:49.487Z,926.96
2016-12-15T05:25:17.729Z,926.97
2016-12-15T05:25:45.962Z,927.02
2016-12-15T05:26:14.224Z,927
2016-12-15T05:26:42.539Z,927.03
2016-12-15T05:27:10.766Z,927.01
2016-12-15T05:27:39.096Z,927.02
2016-12-15T05:28:50.155Z,927.01
2016-12-15T05:29:18.400Z,927.03
2016-12-15T05:29:46.552Z,927.05
2016-12-15T05:30:14.790Z,927.22
2016-12-15T05:30:42.916Z,926.98
2016-12-15T05:31:11.064Z,927.02
2016-12-15T05:31:39.389Z,927.01
2016-12-15T05:32:07.558Z,927.03
2016-12-15T05:32:35.781Z,927.02
2016-12-15T05:33:03.909Z,927.05
2016-12-15T05:33:32.052Z,926.97
2016-12-15T05:34:43.202Z,927.04
2016-12-15T05:35:11.541Z,927.02
2016-12-15T05:35:39.791Z,927.13
2016-12-15T05:36:07.842Z,927
2016-12-15T05:36:36.066Z,927.04
2016-12-15T05:37:04.112Z,926.99
2016-12-15T05:37:32.251Z,927.08
2016-12-15T05:38:00.420Z,927.07
2016-12-15T05:38:28.646Z,927
2016-12-15T05:38:56.865Z,927.04
2016-12-15T05:39:25.190Z,926.99
2016-12-15T05:40:36.346Z,926.99
2016-12-15T05:41:04.408Z,926.99
2016-12-15T05:41:32.750Z,926.99
2016-12-15T05:42:00.987Z,927.03
2016-12-15T05:42:29.214Z,927
2016-12-15T05:42:57.452Z,926.96
2016-12-15T05:43:25.687Z,926.98
2016-12-15T05:43:53.950Z,927.02
2016-12-15T05:44:22.171Z,927.06
2016-12-15T05:44:50.390Z,927.02
2016-12-15T05:45:18.621Z,926.99
2016-12-15T05:46:29.960Z,926.96
2016-12-15T05:46:58.201Z,927.01
2016-12-15T05:47:26.448Z,927.02
2016-12-15T05:47:54.496Z,927.02
2016-12-15T05:48:22.814Z,927.05
2016-12-15T05:48:51.052Z,927.03
2016-12-15T05:49:19.376Z,927.07
2016-12-15T05:49:47.550Z,927.08
2016-12-15T05:50:15.776Z,927.04
2016-12-15T05:50:43.810Z,927.06
2016-12-15T05:51:12.044Z,927.15
2016-12-15T05:52:23.378Z,927.13
2016-12-15T05:52:51.621Z,927.11
2016-12-15T05:53:19.955Z,927.05
2016-12-15T05:53:48.282Z,927.07
2016-12-15T05:54:16.421Z,927.06
2016-12-15T05:54:44.559Z,927.1
2016-12-15T05:55:12.696Z,927.05
2016-12-15T05:55:40.863Z,927.15
2016-12-15T05:56:09.180Z,927.1
2016-12-15T05:56:37.493Z,927.05
2016-12-15T05:57:05.731Z,927.03
2016-12-15T05:58:17.072Z,927
2016-12-15T05:58:45.310Z,927.11
2016-12-15T05:59:13.496Z,927.07
2016-12-15T05:59:41.743Z,927.07
2016-12-15T06:00:09.965Z,927.03
2016-12-15T06:00:38.114Z,927.01
2016-12-15T06:01:06.347Z,927.01
2016-12-15T06:01:34.616Z,926.96
2016-12-15T06:02:02.933Z,927.07
2016-12-15T06:02:31.064Z,927.21
2016-12-15T06:02:59.201Z,927.04
2016-12-15T06:04:10.446Z,927.02
2016-12-15T06:04:38.687Z,927.01
2016-12-15T06:05:06.933Z,927.01
2016-12-15T06:05:35.165Z,927.09
2016-12-15T06:06:03.481Z,927.02
2016-12-15T06:06:31.724Z,927.04
2016-12-15T06:07:00.043Z,927.06
2016-12-15T06:07:28.398Z,927.08
2016-12-15T06:07:56.710Z,927.07
2016-12-15T06:08:24.929Z,927.09
2016-12-15T06:08:53.069Z,927.1
2016-12-15T06:10:04.316Z,927.01
2016-12-15T06:10:32.562Z,927.07
2016-12-15T06:11:00.807Z,927.11
2016-12-15T06:11:29.138Z,927.06
2016-12-15T06:11:57.454Z,927.09
2016-12-15T06:12:25.505Z,927.11
2016-12-15T06:12:53.550Z,927.07
2016-12-15T06:13:21.906Z,927.05
2016-12-15T06:13:50.221Z,927.14
2016-12-15T06:14:18.352Z,927.1
2016-12-15T06:14:46.490Z,927.08
2016-12-15T06:15:57.830Z,927.1
2016-12-15T06:16:26.162Z,927.21
2016-12-15T06:16:54.403Z,927.14
2016-12-15T06:17:22.637Z,927.12
2016-12-15T06:17:50.764Z,927.05
2016-12-15T06:18:18.913Z,927.15
2016-12-15T06:18:47.050Z,927.18
2016-12-15T06:19:15.318Z,927.13
2016-12-15T06:19:43.540Z,927.14
2016-12-15T06:20:11.763Z,927.12
2016-12-15T06:20:39.994Z,927.24
2016-12-15T06:21:51.330Z,927.2
2016-12-15T06:22:19.571Z,927.18
2016-12-15T06:22:47.816Z,927.04
2016-12-15T06:23:16.052Z,927.18
2016-12-15T06:23:44.278Z,927.18
2016-12-15T06:24:12.424Z,927.27
2016-12-15T06:24:40.653Z,927.24
2016-12-15T06:25:08.915Z,927.23
2016-12-15T06:25:37.237Z,927.12
2016-12-15T06:26:05.561Z,927.22
2016-12-15T06:26:33.708Z,927.23
2016-12-15T06:27:44.957Z,927.13
2016-12-15T06:28:13.198Z,927.17
2016-12-15T06:28:41.352Z,927.22
2016-12-15T06:29:09.588Z,927.15
2016-12-15T06:29:37.713Z,927.21
2016-12-15T06:30:05.858Z,927.21
2016-12-15T06:30:33.811Z,927.17
2016-12-15T06:31:01.983Z,927.13
2016-12-15T06:31:30.113Z,927.22
2016-12-15T06:31:58.236Z,927.21
2016-12-15T06:32:26.566Z,927.25
2016-12-15T06:33:37.719Z,927.22
2016-12-15T06:34:05.961Z,927.26
2016-12-15T06:34:34.116Z,927.34
2016-12-15T06:35:02.449Z,927.31
2016-12-15T06:35:30.765Z,927.3
2016-12-15T06:35:58.725Z,927.28
2016-12-15T06:36:26.861Z,927.29
2016-12-15T06:36:55.131Z,927.38
2016-12-15T06:37:23.454Z,927.3
2016-12-15T06:37:51.671Z,927.29
2016-12-15T06:38:19.905Z,927.31
2016-12-15T06:39:31.244Z,927.35
2016-12-15T06:39:59.576Z,927.31
2016-12-15T06:40:27.819Z,927.33
2016-12-15T06:40:56.150Z,927.35
2016-12-15T06:41:24.276Z,927.3
2016-12-15T06:41:52.423Z,927.34
2016-12-15T06:42:20.649Z,927.37